Flight OLY10020

  • Submitted By: Stavros Sarikas
  • Departure Airport: Olbia / Costa Smeralda Airport (LIEO)
  • Arrival Airport: BRUSSELS NATIONAL (EBBR)
  • Aircraft: A320-200 (SX-OAH)
  • Flight Time: 02.01
  • Date Submitted: 29/08/2017
  • Route: OMEDA UM622 LONSU A2 NIZ UY24 VEVAR UM623 VANAS UN853 PENDU UL47 EPL UM624 ROUSY
  • Status: Accepted
Flight Details
Gross Revenue:
(138 load / € 159.25 per unit
€ 21, 976.50
Fuel Cost:
(-4310 fuel used @ 0.19 / unit)
(€ -818.90)

Additional Log Information:

View Log

Aircraft Used in flight is Airbus A320 British Airways G-EUUU
22:56 Boarding
22:56 Navigation Lights ON at 50 Feet
22:56 Beacon Lights ON at 50 Feet
22:56 Brakes are On
22:57 In Air Refuel Suspected
23:01 Engine 2 Started
23:02 Engine 1 Started
23:03 Brakes are Released
23:03 Pushing back
23:04 Flaps 2 Selected at 50ft and 0kts
23:04 Taxi Lights ON at 50 Feet
23:05 Landing Lights ON at 50 AGL
23:05 Strobe Lights ON at 50 Feet
23:07 You Took off @ 150 Knots and Flaps at Position 2 With a heading of 56 Degrees
Departure Weather LIEO 291950Z 00000KT CAVOK 25/20 Q1014
Departure Coordinates 40.9021235656159/ 9.5243585100139
Takeoff Weight=65668KG Fuel Weight=10825KG
23:07 TOC Reached
23:07 Landing Gear Up @ 160 Knots and 120 Feet
23:07 Taxi Lights OFF at 120 Feet
23:09 Flaps 0 Selected at 1850ft and 193kts
23:10 You exceeded maximum bank angle
23:11 Below 10000 feet you are not allowed to go over 250 knots
23:11 Above FL100 you need to switch of the landing lights
23:11 Landing Lights OFF at 10390 AGL
00:45 Landing Lights ON at 9700 AGL
00:50 Flaps 1 Selected at 3890ft and 203kts
00:52 Flaps 3 Selected at 2110ft and 185kts
00:52 Landing Gear Down @ 182 Knots and 2040 Feet
00:52 Flaps 4 Selected at 1910ft and 170kts
00:52 Taxi Lights ON at 1840 Feet
00:52 Flaps 5 Selected at 1810ft and 166kts
00:55 You Landed @ 127 Knots with -408 Vertical Speed With a heading of 250 and with 1 G Force
Arrival Weather: EBBR 292120Z 18005KT CAVOK 23/16 Q1010 NOSIG
Arrival Coordinates 50.8982020155414/ 4.5196616813948
Landing Weight=61621KG Fuel Weight=6776KG
00:55 Taxiing to gate
00:55 Paused
00:55 Landing Lights OFF at 200 AGL
00:55 Strobe Lights OFF at 200 Feet
00:56 Flaps 0 Selected at 200ft and 31kts
00:57 Brakes are On
Pirep logged with OA Virtual Tracking 1.0.2.4

Route Map